Time;durP1;ratioP1;P1;durP2;ratioP2;P2;SDS_P1;SDS_P2;PMS_P1;PMS_P2;Temp;Humidity;BMP_temperature;BMP_pressure;BME280_temperature;BME280_humidity;BME280_pressure;Samples;Min_cycle;Max_cycle;Signal;HPM_P1;HPM_P2
2023/08/05 00:01:20;;;;;;;3.53;2.13;;;;;;;;;;5055713;28;20380;-88
2023/08/05 00:03:46;;;;;;;1.40;1.10;;;;;;;;;;5052020;28;20021;-86
2023/08/05 00:06:11;;;;;;;4.05;1.45;;;;;;;;;;5054119;28;20499;-88
2023/08/05 00:08:37;;;;;;;3.85;1.60;;;;;;;;;;5060940;28;20035;-89
2023/08/05 00:11:02;;;;;;;3.67;1.80;;;;;;;;;;5051850;28;20028;-87
2023/08/05 00:13:34;;;;;;;2.13;1.50;;;;;;;;;;5058141;28;20053;-89
2023/08/05 00:16:00;;;;;;;4.15;1.98;;;;;;;;;;5062546;28;20029;-88
2023/08/05 00:18:25;;;;;;;2.70;1.90;;;;;;;;;;5055049;28;20116;-88
2023/08/05 00:20:50;;;;;;;2.78;1.80;;;;;;;;;;5063098;28;20237;-89
2023/08/05 00:23:16;;;;;;;1.23;1.13;;;;;;;;;;5052011;28;20426;-88
2023/08/05 00:25:41;;;;;;;2.25;1.52;;;;;;;;;;5050216;28;20029;-84
2023/08/05 00:28:07;;;;;;;1.58;1.27;;;;;;;;;;5053284;28;20033;-86
2023/08/05 00:30:32;;;;;;;2.72;1.50;;;;;;;;;;5056273;28;20028;-87
2023/08/05 00:32:58;;;;;;;2.50;1.70;;;;;;;;;;5055341;28;20033;-88
2023/08/05 00:35:23;;;;;;;1.67;1.23;;;;;;;;;;5056421;28;20037;-89
2023/08/05 00:37:49;;;;;;;2.92;1.92;;;;;;;;;;5060412;28;20033;-89
2023/08/05 00:40:17;;;;;;;2.05;1.38;;;;;;;;;;5059023;28;20035;-89
2023/08/05 00:42:43;;;;;;;2.75;1.70;;;;;;;;;;5052851;28;20083;-85
2023/08/05 00:45:09;;;;;;;2.28;1.58;;;;;;;;;;5060409;28;20033;-87
2023/08/05 00:47:34;;;;;;;2.38;1.85;;;;;;;;;;5053077;28;20468;-88
2023/08/05 00:50:00;;;;;;;2.58;1.70;;;;;;;;;;5060898;28;20024;-87
2023/08/05 00:52:27;;;;;;;2.25;1.80;;;;;;;;;;5061238;28;20024;-87
2023/08/05 00:54:52;;;;;;;3.53;2.10;;;;;;;;;;5054648;28;20151;-87
2023/08/05 00:57:19;;;;;;;3.67;2.25;;;;;;;;;;5056876;28;20085;-85
2023/08/05 00:59:45;;;;;;;2.35;1.83;;;;;;;;;;5052534;28;20016;-85
2023/08/05 01:02:10;;;;;;;2.63;1.63;;;;;;;;;;5062954;28;20479;-85
2023/08/05 01:04:36;;;;;;;3.03;2.22;;;;;;;;;;5056573;28;20049;-83
2023/08/05 01:07:03;;;;;;;4.88;2.60;;;;;;;;;;5066132;28;20361;-83
2023/08/05 01:09:29;;;;;;;2.97;2.17;;;;;;;;;;5061971;28;20024;-84
2023/08/05 01:11:54;;;;;;;2.80;2.33;;;;;;;;;;5051286;28;20079;-83
2023/08/05 01:14:20;;;;;;;2.88;1.73;;;;;;;;;;5051094;28;20063;-83
2023/08/05 01:16:45;;;;;;;2.75;1.92;;;;;;;;;;5052922;28;20435;-85
2023/08/05 01:19:20;;;;;;;2.35;1.73;;;;;;;;;;5048523;28;20048;-86
2023/08/05 01:22:08;;;;;;;4.25;2.88;;;;;;;;;;5049718;28;20025;-85
2023/08/05 01:24:54;;;;;;;3.33;2.10;;;;;;;;;;5053552;28;20021;-84
2023/08/05 01:27:21;;;;;;;3.05;2.20;;;;;;;;;;5047801;28;20469;-85
2023/08/05 01:29:47;;;;;;;3.17;2.25;;;;;;;;;;5048649;28;20032;-85
2023/08/05 01:32:14;;;;;;;2.90;2.10;;;;;;;;;;5055656;28;20107;-84
2023/08/05 01:34:40;;;;;;;3.30;2.15;;;;;;;;;;5063524;28;20024;-85
2023/08/05 01:37:06;;;;;;;3.33;2.00;;;;;;;;;;5051567;28;20040;-85
2023/08/05 01:39:31;;;;;;;3.13;2.38;;;;;;;;;;5050916;28;20087;-85
2023/08/05 01:41:57;;;;;;;3.28;2.25;;;;;;;;;;5050965;28;20511;-83
2023/08/05 01:44:22;;;;;;;2.78;2.25;;;;;;;;;;5053128;28;20036;-84
2023/08/05 01:46:48;;;;;;;2.00;1.65;;;;;;;;;;5049779;28;20078;-86
2023/08/05 01:49:13;;;;;;;4.57;2.30;;;;;;;;;;5051635;28;20532;-84
2023/08/05 01:51:39;;;;;;;4.18;2.58;;;;;;;;;;5052877;28;20032;-85
2023/08/05 01:54:04;;;;;;;3.10;2.17;;;;;;;;;;5057849;28;20072;-85
2023/08/05 01:56:32;;;;;;;3.05;2.40;;;;;;;;;;5048607;28;20027;-85
2023/08/05 01:58:58;;;;;;;2.53;2.10;;;;;;;;;;5080882;28;20033;-84
2023/08/05 02:01:39;;;;;;;12.80;1.98;;;;;;;;;;5072566;28;20025;-84
2023/08/05 02:04:05;;;;;;;1.65;1.52;;;;;;;;;;5058288;28;20086;-85
2023/08/05 02:06:30;;;;;;;2.70;1.95;;;;;;;;;;5053250;28;20029;-84
2023/08/05 02:08:56;;;;;;;2.47;1.75;;;;;;;;;;5064299;28;20503;-84
2023/08/05 02:11:21;;;;;;;3.25;2.30;;;;;;;;;;5054323;28;20029;-84
2023/08/05 02:13:46;;;;;;;3.92;2.13;;;;;;;;;;5060559;28;20083;-85
2023/08/05 02:16:12;;;;;;;2.63;1.80;;;;;;;;;;5057303;28;20040;-85
2023/08/05 02:18:37;;;;;;;4.25;2.63;;;;;;;;;;5066217;28;20070;-84
2023/08/05 02:21:03;;;;;;;3.60;2.63;;;;;;;;;;5055533;28;20358;-85
2023/08/05 02:23:28;;;;;;;5.35;2.45;;;;;;;;;;5060714;28;20073;-85
2023/08/05 02:25:56;;;;;;;2.53;1.98;;;;;;;;;;5056859;28;20044;-86
2023/08/05 02:28:21;;;;;;;3.35;2.25;;;;;;;;;;5053241;28;20041;-85
2023/08/05 02:30:47;;;;;;;3.28;2.40;;;;;;;;;;5056061;28;20031;-83
2023/08/05 02:33:12;;;;;;;1.83;1.67;;;;;;;;;;5053690;28;20051;-87
2023/08/05 02:35:38;;;;;;;4.28;2.38;;;;;;;;;;5060741;28;20024;-85
2023/08/05 02:38:03;;;;;;;2.53;1.77;;;;;;;;;;5062247;28;20029;-85
2023/08/05 02:40:32;;;;;;;1.75;1.23;;;;;;;;;;5053470;28;20053;-83
2023/08/05 02:42:58;;;;;;;4.00;2.40;;;;;;;;;;5057423;28;20101;-85
2023/08/05 02:45:23;;;;;;;3.03;2.53;;;;;;;;;;5053194;28;20456;-84
2023/08/05 02:47:49;;;;;;;4.10;2.58;;;;;;;;;;5055189;28;20018;-85
2023/08/05 02:50:14;;;;;;;2.38;2.10;;;;;;;;;;5056257;28;20017;-86
2023/08/05 02:52:40;;;;;;;3.97;2.40;;;;;;;;;;5063255;28;20086;-86
2023/08/05 02:55:05;;;;;;;2.83;2.00;;;;;;;;;;5063367;28;20119;-84
2023/08/05 02:57:31;;;;;;;3.05;2.08;;;;;;;;;;5052003;28;20384;-84
2023/08/05 02:59:56;;;;;;;3.30;2.25;;;;;;;;;;5054549;28;20520;-84
2023/08/05 03:02:22;;;;;;;3.38;2.42;;;;;;;;;;5053876;28;20104;-85
2023/08/05 03:04:47;;;;;;;2.47;1.83;;;;;;;;;;5060928;28;20055;-84
2023/08/05 03:07:13;;;;;;;4.47;2.38;;;;;;;;;;5053632;28;20139;-86
2023/08/05 03:09:38;;;;;;;3.50;2.45;;;;;;;;;;5059313;28;20020;-82
2023/08/05 03:12:07;;;;;;;1.80;1.48;;;;;;;;;;5054188;28;20059;-84
2023/08/05 03:14:34;;;;;;;3.33;2.25;;;;;;;;;;5059328;28;20024;-84
2023/08/05 03:16:59;;;;;;;3.92;2.45;;;;;;;;;;5061922;28;20155;-86
2023/08/05 03:19:25;;;;;;;6.03;3.33;;;;;;;;;;5064252;28;20111;-85
2023/08/05 03:21:50;;;;;;;2.00;1.30;;;;;;;;;;5054694;28;20029;-85
2023/08/05 03:24:16;;;;;;;3.90;2.72;;;;;;;;;;5050261;28;20025;-84
2023/08/05 03:26:41;;;;;;;2.47;2.00;;;;;;;;;;5062241;28;20024;-85
2023/08/05 03:29:06;;;;;;;4.60;2.80;;;;;;;;;;5054092;28;20516;-83
2023/08/05 03:31:32;;;;;;;3.45;2.15;;;;;;;;;;5050228;28;20032;-84
2023/08/05 03:33:58;;;;;;;3.17;2.38;;;;;;;;;;5052491;28;20040;-83
2023/08/05 03:36:23;;;;;;;3.22;1.88;;;;;;;;;;5058125;28;20033;-84
2023/08/05 03:38:49;;;;;;;2.45;1.85;;;;;;;;;;5053067;28;20481;-85
2023/08/05 03:41:14;;;;;;;2.85;2.25;;;;;;;;;;5051723;28;20025;-85
2023/08/05 03:43:39;;;;;;;3.10;1.98;;;;;;;;;;5042840;28;20083;-85
2023/08/05 03:46:05;;;;;;;3.20;2.13;;;;;;;;;;5056342;28;20362;-85
2023/08/05 03:48:30;;;;;;;3.33;2.20;;;;;;;;;;5065559;28;20115;-86
2023/08/05 03:50:56;;;;;;;2.70;2.00;;;;;;;;;;5064987;28;20024;-84
2023/08/05 03:53:22;;;;;;;3.35;2.83;;;;;;;;;;5055663;28;20112;-83
2023/08/05 03:55:47;;;;;;;3.78;2.83;;;;;;;;;;5051714;28;20125;-84
2023/08/05 03:58:13;;;;;;;3.03;2.33;;;;;;;;;;5053588;28;20098;-82
2023/08/05 04:00:42;;;;;;;2.33;1.70;;;;;;;;;;5049827;28;20033;-83
2023/08/05 04:03:08;;;;;;;3.28;2.10;;;;;;;;;;5050931;28;20039;-85
2023/08/05 04:05:33;;;;;;;2.45;1.63;;;;;;;;;;5064015;28;20028;-84
2023/08/05 04:07:59;;;;;;;2.60;1.83;;;;;;;;;;5060021;28;20131;-85
2023/08/05 04:10:24;;;;;;;3.55;2.20;;;;;;;;;;5050120;28;20035;-88
2023/08/05 04:12:50;;;;;;;3.00;2.20;;;;;;;;;;5055874;28;20528;-90
2023/08/05 04:15:18;;;;;;;3.55;2.20;;;;;;;;;;5058999;28;20476;-86
2023/08/05 04:17:44;;;;;;;3.25;2.30;;;;;;;;;;5054938;28;20029;-88
2023/08/05 04:20:14;;;;;;;2.60;1.88;;;;;;;;;;5056311;28;20537;-85
2023/08/05 04:22:39;;;;;;;3.20;2.28;;;;;;;;;;5051630;28;20032;-86
2023/08/05 04:25:08;;;;;;;3.35;2.38;;;;;;;;;;5063725;28;20025;-88
2023/08/05 04:27:34;;;;;;;2.47;1.63;;;;;;;;;;5066256;28;20090;-86
2023/08/05 04:30:01;;;;;;;3.20;1.92;;;;;;;;;;5053170;28;20813;-87
2023/08/05 04:32:27;;;;;;;3.80;2.50;;;;;;;;;;5062366;28;20370;-88
2023/08/05 04:34:52;;;;;;;5.00;3.15;;;;;;;;;;5055282;28;20058;-87
2023/08/05 04:37:22;;;;;;;2.90;1.90;;;;;;;;;;5057073;28;20055;-85
2023/08/05 04:39:48;;;;;;;2.38;1.73;;;;;;;;;;5054413;28;20112;-86
2023/08/05 04:42:14;;;;;;;2.58;2.15;;;;;;;;;;5051491;28;20033;-87
2023/08/05 04:44:40;;;;;;;2.90;2.15;;;;;;;;;;5048268;28;20048;-87
2023/08/05 04:47:10;;;;;;;2.78;1.98;;;;;;;;;;5042701;28;20032;-86
2023/08/05 04:49:38;;;;;;;3.05;2.00;;;;;;;;;;5050603;28;20025;-85
2023/08/05 04:52:06;;;;;;;1.83;1.65;;;;;;;;;;5055291;28;20033;-85
2023/08/05 04:54:43;;;;;;;3.20;2.42;;;;;;;;;;5051267;28;20104;-87
2023/08/05 04:57:09;;;;;;;3.38;1.98;;;;;;;;;;5051234;28;20036;-86
2023/08/05 04:59:35;;;;;;;2.15;1.30;;;;;;;;;;5043260;28;20025;-86
2023/08/05 05:02:00;;;;;;;3.05;1.90;;;;;;;;;;5050924;28;20033;-85
2023/08/05 05:04:26;;;;;;;2.63;1.77;;;;;;;;;;5056240;28;20030;-88
2023/08/05 05:06:51;;;;;;;3.78;2.30;;;;;;;;;;5053380;28;20029;-83
2023/08/05 05:09:17;;;;;;;2.28;1.45;;;;;;;;;;5064272;28;20471;-85
2023/08/05 05:11:42;;;;;;;1.67;1.38;;;;;;;;;;5054401;28;20044;-85
2023/08/05 05:14:08;;;;;;;1.77;1.35;;;;;;;;;;5049566;28;20029;-84
2023/08/05 05:16:33;;;;;;;1.85;1.30;;;;;;;;;;5050186;28;20079;-83
2023/08/05 05:18:59;;;;;;;2.70;1.70;;;;;;;;;;5056470;28;20017;-84
2023/08/05 05:21:24;;;;;;;1.33;1.17;;;;;;;;;;5048687;28;20372;-84
2023/08/05 05:23:50;;;;;;;3.00;1.67;;;;;;;;;;5053095;28;20025;-84
2023/08/05 05:26:15;;;;;;;4.35;1.95;;;;;;;;;;5050428;28;20119;-85
2023/08/05 05:28:41;;;;;;;1.88;1.55;;;;;;;;;;5054044;28;20036;-84
2023/08/05 05:31:06;;;;;;;1.55;1.33;;;;;;;;;;5047714;28;20037;-84
2023/08/05 05:33:32;;;;;;;2.20;1.40;;;;;;;;;;5056938;28;20081;-85
2023/08/05 05:35:57;;;;;;;2.80;1.92;;;;;;;;;;5052573;28;20064;-85
2023/08/05 05:38:23;;;;;;;2.03;1.10;;;;;;;;;;5059369;28;20029;-84
2023/08/05 05:40:48;;;;;;;1.58;1.30;;;;;;;;;;5049612;28;20113;-84
2023/08/05 05:43:13;;;;;;;3.88;2.33;;;;;;;;;;5050080;28;20021;-84
2023/08/05 05:45:40;;;;;;;2.33;2.13;;;;;;;;;;5059935;28;20069;-85
2023/08/05 05:48:05;;;;;;;2.63;1.75;;;;;;;;;;5053273;28;20017;-83
2023/08/05 05:50:31;;;;;;;2.25;1.67;;;;;;;;;;5056763;28;20055;-84
2023/08/05 05:52:56;;;;;;;2.58;1.60;;;;;;;;;;5047906;28;20112;-83
2023/08/05 05:55:22;;;;;;;1.98;1.50;;;;;;;;;;5057502;28;20118;-82
2023/08/05 05:57:48;;;;;;;4.00;1.77;;;;;;;;;;5052241;28;20036;-87
2023/08/05 06:00:14;;;;;;;1.95;1.35;;;;;;;;;;5060780;28;20033;-83
2023/08/05 06:02:47;;;;;;;1.63;1.38;;;;;;;;;;5054972;28;20491;-92
2023/08/05 06:05:12;;;;;;;2.13;1.40;;;;;;;;;;5053892;28;20566;-91
2023/08/05 06:07:38;;;;;;;2.30;1.95;;;;;;;;;;5059514;28;20047;-87
2023/08/05 06:10:03;;;;;;;4.57;2.63;;;;;;;;;;5059888;28;20112;-86
2023/08/05 06:12:32;;;;;;;1.45;1.23;;;;;;;;;;5049138;28;20029;-84
2023/08/05 06:15:00;;;;;;;2.58;1.55;;;;;;;;;;5054151;28;20171;-85
2023/08/05 06:17:26;;;;;;;2.30;1.55;;;;;;;;;;5059774;28;20131;-87
2023/08/05 06:19:52;;;;;;;1.48;1.00;;;;;;;;;;5058845;28;20141;-89
2023/08/05 06:22:17;;;;;;;2.40;1.95;;;;;;;;;;5056141;28;20078;-87
2023/08/05 06:24:43;;;;;;;2.38;1.80;;;;;;;;;;5053138;28;20060;-92
2023/08/05 06:27:08;;;;;;;2.47;1.60;;;;;;;;;;5050809;28;20426;-87
2023/08/05 06:29:33;;;;;;;1.70;1.52;;;;;;;;;;5055408;28;20045;-87
2023/08/05 06:31:59;;;;;;;1.75;1.38;;;;;;;;;;5056247;28;20037;-85
2023/08/05 06:34:24;;;;;;;2.72;1.92;;;;;;;;;;5051618;28;20056;-86
2023/08/05 06:36:50;;;;;;;3.40;1.45;;;;;;;;;;5050622;28;20030;-86
2023/08/05 06:39:15;;;;;;;2.22;1.58;;;;;;;;;;5048049;28;20969;-89
2023/08/05 06:41:41;;;;;;;3.58;2.22;;;;;;;;;;5055138;28;20028;-87
2023/08/05 06:44:06;;;;;;;1.98;1.25;;;;;;;;;;5057964;28;20021;-87
2023/08/05 06:46:31;;;;;;;2.35;1.60;;;;;;;;;;5062373;28;20024;-87
2023/08/05 06:48:58;;;;;;;2.38;1.67;;;;;;;;;;5057380;28;20635;-85
2023/08/05 06:51:25;;;;;;;3.13;2.10;;;;;;;;;;5060652;28;20016;-85
2023/08/05 06:53:50;;;;;;;1.85;1.42;;;;;;;;;;5050914;28;20078;-84
2023/08/05 06:56:16;;;;;;;2.90;1.98;;;;;;;;;;5056725;28;20435;-85
2023/08/05 06:58:42;;;;;;;2.05;1.45;;;;;;;;;;5067295;28;20024;-84
2023/08/05 07:01:07;;;;;;;2.13;1.65;;;;;;;;;;5059279;28;20033;-86
2023/08/05 07:03:33;;;;;;;2.47;1.92;;;;;;;;;;5058775;28;20032;-86
2023/08/05 07:05:58;;;;;;;2.05;1.40;;;;;;;;;;5057324;28;20025;-86
2023/08/05 07:08:25;;;;;;;3.22;1.90;;;;;;;;;;5061210;28;20036;-85
2023/08/05 07:10:58;;;;;;;3.35;2.13;;;;;;;;;;5056605;28;20036;-87
2023/08/05 07:13:27;;;;;;;3.60;2.17;;;;;;;;;;5057701;28;20063;-86
2023/08/05 07:16:02;;;;;;;2.50;1.70;;;;;;;;;;5062201;28;20487;-88
2023/08/05 07:18:29;;;;;;;3.10;1.77;;;;;;;;;;5055651;28;20025;-86
2023/08/05 07:20:54;;;;;;;3.60;2.50;;;;;;;;;;5060186;28;20067;-90
2023/08/05 07:23:20;;;;;;;4.25;1.60;;;;;;;;;;5058431;28;20063;-85
2023/08/05 07:25:46;;;;;;;2.15;1.48;;;;;;;;;;5056709;28;20035;-87
2023/08/05 07:28:12;;;;;;;2.88;2.13;;;;;;;;;;5065701;28;20400;-90
2023/08/05 07:30:37;;;;;;;2.50;1.95;;;;;;;;;;5051915;28;20476;-87
2023/08/05 07:33:08;;;;;;;2.40;1.77;;;;;;;;;;5056021;28;20065;-88
2023/08/05 07:35:33;;;;;;;2.67;1.95;;;;;;;;;;5053757;28;20506;-88
2023/08/05 07:38:03;;;;;;;1.83;1.40;;;;;;;;;;5061841;28;20025;-87
2023/08/05 07:40:30;;;;;;;2.70;2.22;;;;;;;;;;5058971;28;20025;-87
2023/08/05 07:42:56;;;;;;;1.85;1.50;;;;;;;;;;5061436;28;20108;-87
2023/08/05 07:45:21;;;;;;;2.15;1.88;;;;;;;;;;5061726;28;20540;-88
2023/08/05 07:47:47;;;;;;;2.53;1.90;;;;;;;;;;5063370;28;20439;-89
2023/08/05 07:50:21;;;;;;;2.20;1.58;;;;;;;;;;5068712;28;20029;-88
2023/08/05 07:52:46;;;;;;;3.10;2.10;;;;;;;;;;5064917;28;20020;-89
2023/08/05 07:55:12;;;;;;;2.75;2.15;;;;;;;;;;5064113;28;20025;-89
2023/08/05 07:57:40;;;;;;;2.47;1.58;;;;;;;;;;5061070;28;20020;-89
2023/08/05 08:00:08;;;;;;;3.22;1.90;;;;;;;;;;5057571;28;20028;-88
2023/08/05 08:02:34;;;;;;;3.33;2.37;;;;;;;;;;5057825;28;20064;-88
2023/08/05 08:05:04;;;;;;;3.50;2.10;;;;;;;;;;5070438;28;20056;-91
2023/08/05 08:07:29;;;;;;;2.25;1.75;;;;;;;;;;5048564;28;20021;-86
2023/08/05 08:09:55;;;;;;;2.40;1.55;;;;;;;;;;5054292;28;20025;-86
2023/08/05 08:12:20;;;;;;;2.65;1.70;;;;;;;;;;5063253;28;20094;-83
2023/08/05 08:14:46;;;;;;;2.33;2.00;;;;;;;;;;5058141;28;20384;-85
2023/08/05 08:17:11;;;;;;;3.10;2.22;;;;;;;;;;5061583;28;20112;-85
2023/08/05 08:19:37;;;;;;;2.38;1.73;;;;;;;;;;5054502;28;20175;-83
2023/08/05 08:22:02;;;;;;;4.03;2.42;;;;;;;;;;5055591;28;20033;-83
2023/08/05 08:24:28;;;;;;;2.85;1.70;;;;;;;;;;5063481;28;20391;-84
2023/08/05 08:26:53;;;;;;;3.45;1.80;;;;;;;;;;5061924;28;20021;-85
2023/08/05 08:29:19;;;;;;;2.80;1.83;;;;;;;;;;5059467;28;20044;-86
2023/08/05 08:31:44;;;;;;;4.20;2.25;;;;;;;;;;5051261;28;20029;-87
2023/08/05 08:34:10;;;;;;;3.25;1.98;;;;;;;;;;5062584;28;20036;-89
2023/08/05 08:36:35;;;;;;;2.47;1.33;;;;;;;;;;5062758;28;20107;-87
2023/08/05 08:39:04;;;;;;;3.47;2.20;;;;;;;;;;5065407;28;20099;-89
2023/08/05 08:41:32;;;;;;;;;;;;;;;;;;5064138;28;20538;-88
2023/08/05 08:43:59;;;;;;;2.38;1.77;;;;;;;;;;5060219;28;19916;-86
2023/08/05 08:46:25;;;;;;;3.60;2.22;;;;;;;;;;5058482;28;20108;-88
2023/08/05 08:48:51;;;;;;;1.98;1.73;;;;;;;;;;5057353;28;20103;-88
2023/08/05 08:51:20;;;;;;;2.60;1.95;;;;;;;;;;5053704;28;20464;-88
2023/08/05 08:53:47;;;;;;;3.03;2.17;;;;;;;;;;5055681;28;20395;-88
2023/08/05 08:56:12;;;;;;;3.08;2.05;;;;;;;;;;5052697;28;20086;-86
2023/08/05 08:58:38;;;;;;;3.80;2.33;;;;;;;;;;5065503;28;20446;-88
2023/08/05 09:01:04;;;;;;;2.78;1.90;;;;;;;;;;5051458;28;20063;-88
2023/08/05 09:03:32;;;;;;;2.40;1.90;;;;;;;;;;5062627;28;20035;-85
2023/08/05 09:05:58;;;;;;;2.92;1.83;;;;;;;;;;5059537;28;20087;-90
2023/08/05 09:08:24;;;;;;;4.25;2.75;;;;;;;;;;5067395;28;20025;-87
2023/08/05 09:10:50;;;;;;;2.08;1.77;;;;;;;;;;5056824;28;20158;-89
2023/08/05 09:13:17;;;;;;;3.20;1.83;;;;;;;;;;5049590;28;20028;-89
2023/08/05 09:15:43;;;;;;;3.17;2.08;;;;;;;;;;5062855;28;20058;-87
2023/08/05 09:18:08;;;;;;;3.10;2.45;;;;;;;;;;5063123;28;20035;-88
2023/08/05 09:20:37;;;;;;;3.25;2.00;;;;;;;;;;5063911;28;20448;-85
2023/08/05 09:23:05;;;;;;;2.72;1.77;;;;;;;;;;5056977;28;20028;-85
2023/08/05 09:25:32;;;;;;;2.80;1.92;;;;;;;;;;5056562;28;20082;-88
2023/08/05 09:28:00;;;;;;;4.38;2.05;;;;;;;;;;5051445;28;20057;-86
2023/08/05 09:30:26;;;;;;;3.20;2.03;;;;;;;;;;5053960;28;20115;-85
2023/08/05 09:32:53;;;;;;;4.47;2.10;;;;;;;;;;5051836;28;20107;-85
2023/08/05 09:35:19;;;;;;;3.88;2.38;;;;;;;;;;5060229;28;20078;-92
2023/08/05 09:37:52;;;;;;;3.40;2.03;;;;;;;;;;5052455;28;20037;-88
2023/08/05 09:40:25;;;;;;;3.33;2.08;;;;;;;;;;5052561;28;20033;-90
2023/08/05 09:42:54;;;;;;;2.03;1.80;;;;;;;;;;5060815;28;20031;-89
2023/08/05 09:45:21;;;;;;;3.23;2.37;;;;;;;;;;5055911;28;20021;-90
2023/08/05 09:47:49;;;;;;;3.22;2.28;;;;;;;;;;5061140;28;20901;-86
2023/08/05 09:50:16;;;;;;;2.97;1.98;;;;;;;;;;5050787;28;20075;-89
2023/08/05 09:52:43;;;;;;;3.45;2.10;;;;;;;;;;5055542;28;20119;-89
2023/08/05 09:55:14;;;;;;;3.42;2.22;;;;;;;;;;5057356;28;20032;-87
2023/08/05 09:57:41;;;;;;;3.15;2.17;;;;;;;;;;5056200;28;20017;-90
2023/08/05 10:00:10;;;;;;;3.63;2.22;;;;;;;;;;5053542;28;20029;-88
2023/08/05 10:02:36;;;;;;;3.00;2.08;;;;;;;;;;5059255;28;20025;-90
2023/08/05 10:05:02;;;;;;;2.72;2.28;;;;;;;;;;5060352;28;20675;-89
2023/08/05 10:07:28;;;;;;;3.22;2.17;;;;;;;;;;5059595;28;20491;-89
2023/08/05 10:09:55;;;;;;;3.55;2.35;;;;;;;;;;5061423;28;20550;-87
2023/08/05 10:12:25;;;;;;;3.53;2.45;;;;;;;;;;5062730;28;20025;-88
2023/08/05 10:14:54;;;;;;;3.70;2.80;;;;;;;;;;5054587;28;20029;-90
2023/08/05 10:17:20;;;;;;;2.47;1.90;;;;;;;;;;5057858;28;20064;-91
2023/08/05 10:19:50;;;;;;;4.15;2.65;;;;;;;;;;5055544;28;20094;-89
2023/08/05 10:22:21;;;;;;;4.05;2.75;;;;;;;;;;5070188;28;20035;-87
2023/08/05 10:24:50;;;;;;;3.95;2.80;;;;;;;;;;5058123;28;20032;-90
2023/08/05 10:27:16;;;;;;;;;;;;;;;;;;5064184;28;20013;-89
2023/08/05 10:29:54;;;;;;;3.33;2.40;;;;;;;;;;5073061;28;20413;-89
2023/08/05 10:32:29;;;;;;;2.53;1.77;;;;;;;;;;5060935;28;20032;-91
2023/08/05 10:35:39;;;;;;;3.30;2.58;;;;;;;;;;5062562;28;20036;-87
2023/08/05 10:38:19;;;;;;;3.38;2.65;;;;;;;;;;5064648;28;20071;-88
2023/08/05 10:40:51;;;;;;;5.90;3.00;;;;;;;;;;5061448;28;20031;-90
2023/08/05 10:43:33;;;;;;;3.50;2.40;;;;;;;;;;5060207;28;20028;-88
2023/08/05 10:45:59;;;;;;;3.70;2.63;;;;;;;;;;5055635;28;20033;-88
2023/08/05 10:48:35;;;;;;;3.28;2.20;;;;;;;;;;5062631;28;20032;-89
2023/08/05 10:51:12;;;;;;;3.20;2.13;;;;;;;;;;5067425;28;20036;-90
2023/08/05 10:53:39;;;;;;;3.58;2.67;;;;;;;;;;5067185;28;20467;-90
2023/08/05 10:56:14;;;;;;;5.00;3.72;;;;;;;;;;5061505;28;20040;-89
2023/08/05 10:58:48;;;;;;;3.28;2.90;;;;;;;;;;5061016;28;20056;-88
2023/08/05 11:01:14;;;;;;;3.95;2.97;;;;;;;;;;5062452;28;20033;-89
2023/08/05 11:03:41;;;;;;;3.20;2.15;;;;;;;;;;5060708;28;20031;-89
2023/08/05 11:06:07;;;;;;;4.40;3.05;;;;;;;;;;5064768;28;20488;-87
2023/08/05 11:08:34;;;;;;;5.32;2.42;;;;;;;;;;5059041;28;20823;-90
2023/08/05 11:11:02;;;;;;;3.00;2.30;;;;;;;;;;5065160;28;20070;-87
2023/08/05 11:13:31;;;;;;;3.38;2.70;;;;;;;;;;5060432;28;20037;-88
2023/08/05 11:16:01;;;;;;;3.53;2.60;;;;;;;;;;5063418;28;20029;-89
2023/08/05 11:18:27;;;;;;;3.00;1.98;;;;;;;;;;5060612;28;20028;-89
2023/08/05 11:20:53;;;;;;;3.35;1.95;;;;;;;;;;5062842;28;20025;-88
2023/08/05 11:23:18;;;;;;;3.58;2.30;;;;;;;;;;5062536;28;20439;-90
2023/08/05 11:25:45;;;;;;;4.97;3.30;;;;;;;;;;5066777;28;20074;-89
2023/08/05 11:28:10;;;;;;;2.80;2.20;;;;;;;;;;5061682;28;20037;-91
2023/08/05 11:30:39;;;;;;;3.47;2.08;;;;;;;;;;5064058;28;20519;-90
2023/08/05 11:33:05;;;;;;;4.47;2.80;;;;;;;;;;5061780;28;20104;-90
2023/08/05 11:35:31;;;;;;;3.47;2.42;;;;;;;;;;5057288;28;20036;-89
2023/08/05 11:37:57;;;;;;;4.57;2.33;;;;;;;;;;5057886;28;20029;-90
2023/08/05 11:40:23;;;;;;;3.13;2.15;;;;;;;;;;5060227;28;20104;-88
2023/08/05 11:42:50;;;;;;;4.15;2.42;;;;;;;;;;5062155;28;20044;-89
2023/08/05 11:45:16;;;;;;;4.60;2.70;;;;;;;;;;5064354;28;20025;-91
2023/08/05 11:47:43;;;;;;;3.78;2.38;;;;;;;;;;5065036;28;20031;-90
2023/08/05 11:50:10;;;;;;;4.07;2.53;;;;;;;;;;5065324;28;20024;-89
2023/08/05 11:52:37;;;;;;;3.80;2.78;;;;;;;;;;5059660;28;20040;-86
2023/08/05 11:55:07;;;;;;;4.80;2.92;;;;;;;;;;5067171;28;20491;-90
2023/08/05 11:57:33;;;;;;;2.30;1.85;;;;;;;;;;5061180;28;20094;-89
2023/08/05 12:00:05;;;;;;;3.00;2.42;;;;;;;;;;5061701;28;20483;-90
2023/08/05 12:02:33;;;;;;;3.58;2.10;;;;;;;;;;5059082;28;20495;-88
2023/08/05 12:04:59;;;;;;;3.85;2.58;;;;;;;;;;5064189;28;20027;-87
2023/08/05 12:07:25;;;;;;;4.43;3.08;;;;;;;;;;5064817;28;20021;-90
2023/08/05 12:10:11;;;;;;;4.40;2.35;;;;;;;;;;5064270;28;20032;-87
2023/08/05 12:12:38;;;;;;;4.90;3.25;;;;;;;;;;5063661;28;20341;-90
2023/08/05 12:15:27;;;;;;;3.25;2.45;;;;;;;;;;5063490;28;20486;-91
2023/08/05 12:17:57;;;;;;;3.35;2.30;;;;;;;;;;5063574;28;20074;-90
2023/08/05 12:20:30;;;;;;;4.30;2.80;;;;;;;;;;5060978;28;20052;-89
2023/08/05 12:22:58;;;;;;;2.75;2.08;;;;;;;;;;5059870;28;20428;-88
2023/08/05 12:25:25;;;;;;;3.10;2.40;;;;;;;;;;5061622;28;20051;-88
2023/08/05 12:27:50;;;;;;;2.45;1.95;;;;;;;;;;5061933;28;20102;-88
2023/08/05 12:30:16;;;;;;;3.50;2.25;;;;;;;;;;5062331;28;20024;-88
2023/08/05 12:32:41;;;;;;;5.22;2.67;;;;;;;;;;5057796;28;20035;-90
2023/08/05 12:35:09;;;;;;;3.30;2.53;;;;;;;;;;5066673;28;20048;-90
2023/08/05 12:37:36;;;;;;;3.85;2.58;;;;;;;;;;5056773;28;20108;-91
2023/08/05 12:40:06;;;;;;;2.63;1.90;;;;;;;;;;5062564;28;20461;-90
2023/08/05 12:42:33;;;;;;;3.35;2.40;;;;;;;;;;5062321;28;20103;-90
2023/08/05 12:45:03;;;;;;;3.28;2.45;;;;;;;;;;5060093;28;20487;-90
2023/08/05 12:47:29;;;;;;;3.85;2.58;;;;;;;;;;5066488;28;20480;-93
2023/08/05 12:49:54;;;;;;;3.83;2.78;;;;;;;;;;5060145;28;20020;-90
2023/08/05 12:52:20;;;;;;;2.83;2.10;;;;;;;;;;5059533;28;20379;-90
2023/08/05 12:54:45;;;;;;;2.70;2.10;;;;;;;;;;5062639;28;20021;-91
2023/08/05 12:57:11;;;;;;;4.28;2.13;;;;;;;;;;5060959;28;20032;-90
2023/08/05 12:59:36;;;;;;;3.42;2.47;;;;;;;;;;5059799;28;20024;-87
2023/08/05 13:02:02;;;;;;;3.58;2.22;;;;;;;;;;5059583;28;20025;-90
2023/08/05 13:04:28;;;;;;;3.55;2.30;;;;;;;;;;5060325;28;20032;-88
2023/08/05 13:06:53;;;;;;;3.33;2.50;;;;;;;;;;5064037;28;20651;-88
2023/08/05 13:09:19;;;;;;;2.67;2.15;;;;;;;;;;5061391;28;20023;-89
2023/08/05 13:11:45;;;;;;;2.92;2.38;;;;;;;;;;5059069;28;20400;-88
2023/08/05 13:14:11;;;;;;;12.80;2.55;;;;;;;;;;5059363;28;20481;-89
2023/08/05 13:16:37;;;;;;;3.30;2.25;;;;;;;;;;5057024;28;20062;-89
2023/08/05 13:19:02;;;;;;;3.33;2.58;;;;;;;;;;5063519;28;20116;-88
2023/08/05 13:21:28;;;;;;;3.70;2.58;;;;;;;;;;5056564;28;20101;-92
2023/08/05 13:23:54;;;;;;;4.00;2.80;;;;;;;;;;5063523;28;20182;-91
2023/08/05 13:26:20;;;;;;;2.72;2.42;;;;;;;;;;5061206;28;20055;-89
2023/08/05 13:28:45;;;;;;;3.67;2.58;;;;;;;;;;5063744;28;20036;-88
2023/08/05 13:31:11;;;;;;;3.05;2.22;;;;;;;;;;5063208;28;20495;-91
2023/08/05 13:33:36;;;;;;;3.60;2.22;;;;;;;;;;5063453;28;21114;-90
2023/08/05 13:36:02;;;;;;;2.30;1.80;;;;;;;;;;5059357;28;20131;-90
2023/08/05 13:38:27;;;;;;;2.65;2.05;;;;;;;;;;5060652;28;20100;-89
2023/08/05 13:40:53;;;;;;;2.85;1.98;;;;;;;;;;5059512;28;20029;-90
2023/08/05 13:43:19;;;;;;;3.33;2.08;;;;;;;;;;5059902;28;20036;-88
2023/08/05 13:45:54;;;;;;;3.22;2.25;;;;;;;;;;5056684;28;20031;-89
2023/08/05 13:48:20;;;;;;;2.97;1.98;;;;;;;;;;5060241;28;20066;-90
2023/08/05 13:50:45;;;;;;;2.72;1.67;;;;;;;;;;5060419;28;20029;-87
2023/08/05 13:53:11;;;;;;;4.35;2.00;;;;;;;;;;5062215;28;20031;-89
2023/08/05 13:55:37;;;;;;;2.60;1.80;;;;;;;;;;5063209;28;20036;-90
2023/08/05 13:58:02;;;;;;;2.75;2.03;;;;;;;;;;5063039;28;20068;-89
2023/08/05 14:00:28;;;;;;;2.67;1.95;;;;;;;;;;5066672;28;20362;-89
2023/08/05 14:02:54;;;;;;;2.42;1.60;;;;;;;;;;5065740;28;20107;-90
2023/08/05 14:05:20;;;;;;;7.68;2.20;;;;;;;;;;5058551;28;20029;-90
2023/08/05 14:07:45;;;;;;;2.95;1.77;;;;;;;;;;5063716;28;20024;-92
2023/08/05 14:10:11;;;;;;;2.13;1.65;;;;;;;;;;5063752;28;20033;-90
2023/08/05 14:12:38;;;;;;;2.95;1.65;;;;;;;;;;5068253;28;20391;-89
2023/08/05 14:15:05;;;;;;;2.38;1.60;;;;;;;;;;5062965;28;20383;-90
2023/08/05 14:17:30;;;;;;;2.88;1.60;;;;;;;;;;5061422;28;20020;-92
2023/08/05 14:19:56;;;;;;;2.72;2.00;;;;;;;;;;5061384;28;20503;-89
2023/08/05 14:22:21;;;;;;;2.22;1.60;;;;;;;;;;5064584;28;20048;-92
2023/08/05 14:24:47;;;;;;;3.33;1.92;;;;;;;;;;5061798;28;20078;-88
2023/08/05 14:27:12;;;;;;;3.00;2.10;;;;;;;;;;5063423;28;20032;-90
2023/08/05 14:29:38;;;;;;;3.17;1.70;;;;;;;;;;5065127;28;20056;-91
2023/08/05 14:32:04;;;;;;;3.28;1.85;;;;;;;;;;5058843;28;20120;-90
2023/08/05 14:34:29;;;;;;;2.35;1.88;;;;;;;;;;5064969;28;20060;-91
2023/08/05 14:36:55;;;;;;;2.53;1.83;;;;;;;;;;5068513;28;20017;-89
2023/08/05 14:39:20;;;;;;;2.85;2.10;;;;;;;;;;5066027;28;20031;-88
2023/08/05 14:41:46;;;;;;;4.22;2.22;;;;;;;;;;5065336;28;20028;-91